Time;durP1;ratioP1;P1;durP2;ratioP2;P2;SDS_P1;SDS_P2;PMS_P1;PMS_P2;Temp;Humidity;BMP_temperature;BMP_pressure;BME280_temperature;BME280_humidity;BME280_pressure;Samples;Min_cycle;Max_cycle;Signal;HPM_P1;HPM_P2
2022/07/16 00:02:05;;;;;;;20.40;10.13;;;25.60;99.90;;;;;;5074906;28;20024;-68
2022/07/16 00:04:32;;;;;;;20.65;10.27;;;25.60;99.90;;;;;;5079538;28;20032;-69
2022/07/16 00:06:58;;;;;;;18.92;11.10;;;25.60;99.90;;;;;;5084282;28;20396;-68
2022/07/16 00:09:25;;;;;;;19.58;10.98;;;25.60;99.90;;;;;;5075504;28;20019;-69
2022/07/16 00:11:51;;;;;;;20.00;10.23;;;25.60;99.90;;;;;;5074395;28;20086;-69
2022/07/16 00:14:19;;;;;;;22.45;9.93;;;25.60;99.90;;;;;;5076818;28;20017;-69
2022/07/16 00:16:45;;;;;;;19.30;9.80;;;25.60;99.90;;;;;;5085352;28;20025;-69
2022/07/16 00:21:42;;;;;;;18.25;10.00;;;25.50;99.90;;;;;;5083555;28;20549;-69
2022/07/16 00:24:09;;;;;;;16.10;9.73;;;25.50;99.90;;;;;;5089711;28;20021;-68
2022/07/16 00:26:35;;;;;;;18.42;10.25;;;25.60;99.90;;;;;;5080414;28;20032;-69
2022/07/16 00:29:02;;;;;;;12.45;9.07;;;25.50;99.90;;;;;;5082182;28;20614;-68
2022/07/16 00:31:29;;;;;;;13.32;9.70;;;25.50;99.90;;;;;;5084033;28;20020;-67
2022/07/16 00:33:55;;;;;;;18.67;10.43;;;25.50;99.90;;;;;;5083278;28;20143;-68
2022/07/16 00:36:22;;;;;;;19.65;10.48;;;25.50;99.90;;;;;;5081968;28;20074;-68
2022/07/16 00:38:48;;;;;;;19.27;9.18;;;25.60;99.90;;;;;;5082069;28;20017;-68
2022/07/16 00:41:16;;;;;;;18.90;10.05;;;25.60;99.90;;;;;;5080446;28;20468;-68
2022/07/16 00:43:53;;;;;;;17.20;9.93;;;25.60;99.90;;;;;;5085230;28;20481;-67
2022/07/16 00:46:20;;;;;;;17.35;11.02;;;25.60;99.90;;;;;;5085231;28;20028;-68
2022/07/16 00:48:47;;;;;;;18.38;11.38;;;25.70;99.90;;;;;;5082102;28;20044;-68
2022/07/16 00:51:15;;;;;;;19.75;10.68;;;25.70;99.90;;;;;;5083974;28;20023;-68
2022/07/16 00:53:43;;;;;;;16.48;10.95;;;25.70;99.90;;;;;;5083906;28;20377;-68
2022/07/16 00:56:11;;;;;;;16.90;11.10;;;25.70;99.90;;;;;;5082187;28;20070;-68
2022/07/16 00:58:40;;;;;;;20.13;11.60;;;25.80;99.90;;;;;;5083449;28;20379;-69
2022/07/16 01:01:08;;;;;;;21.50;13.15;;;25.80;99.90;;;;;;5084287;28;20028;-66
2022/07/16 01:03:35;;;;;;;17.63;12.05;;;25.90;99.90;;;;;;5082642;28;20024;-67
2022/07/16 01:06:06;;;;;;;16.63;12.07;;;25.90;99.90;;;;;;5082779;28;20020;-67
2022/07/16 01:08:35;;;;;;;31.45;19.75;;;25.90;99.90;;;;;;5073527;28;20029;-67
2022/07/16 01:11:04;;;;;;;15.85;11.15;;;26.00;99.90;;;;;;5075920;28;20032;-69
2022/07/16 01:13:32;;;;;;;19.58;10.35;;;26.00;99.90;;;;;;5081451;28;20384;-68
2022/07/16 01:15:58;;;;;;;20.75;11.27;;;26.00;99.90;;;;;;5084072;28;20172;-67
2022/07/16 01:18:26;;;;;;;16.92;10.75;;;26.10;99.90;;;;;;5082065;28;20054;-69
2022/07/16 01:20:52;;;;;;;21.98;11.02;;;26.10;99.90;;;;;;5082966;28;20484;-66
2022/07/16 01:23:21;;;;;;;16.88;11.60;;;26.20;99.90;;;;;;5081448;28;20026;-67
2022/07/16 01:25:48;;;;;;;22.85;13.38;;;26.20;99.90;;;;;;5081802;28;20016;-66
2022/07/16 01:28:15;;;;;;;15.30;10.52;;;26.20;99.90;;;;;;5082952;28;20020;-67
2022/07/16 01:30:42;;;;;;;16.60;11.68;;;26.20;99.90;;;;;;5083966;28;20024;-67
2022/07/16 01:33:13;;;;;;;15.90;11.40;;;26.30;99.90;;;;;;5082027;28;20013;-67
2022/07/16 01:35:40;;;;;;;15.30;10.25;;;26.40;99.90;;;;;;5082304;28;20403;-67
2022/07/16 01:38:10;;;;;;;15.88;9.95;;;26.50;99.90;;;;;;5084654;28;20016;-67
2022/07/16 01:40:36;;;;;;;18.33;10.07;;;26.40;99.90;;;;;;5083644;28;20032;-69
2022/07/16 01:43:03;;;;;;;18.45;10.18;;;26.50;99.90;;;;;;5081475;28;20075;-68
2022/07/16 01:45:29;;;;;;;16.27;9.82;;;26.50;99.90;;;;;;5087189;28;20028;-69
2022/07/16 01:47:57;;;;;;;17.92;10.05;;;26.50;99.90;;;;;;5087368;28;20085;-69
2022/07/16 01:50:24;;;;;;;20.90;10.80;;;26.60;99.90;;;;;;5085293;28;20020;-69
2022/07/16 01:52:50;;;;;;;21.20;12.55;;;26.60;99.90;;;;;;5081687;28;20051;-68
2022/07/16 01:55:17;;;;;;;20.23;11.85;;;26.70;99.90;;;;;;5083245;28;20377;-67
2022/07/16 01:57:43;;;;;;;15.00;10.93;;;26.70;99.90;;;;;;5082606;28;20614;-67
2022/07/16 02:00:10;;;;;;;16.70;10.18;;;26.70;99.90;;;;;;5091125;28;20024;-67
2022/07/16 02:02:37;;;;;;;28.25;12.63;;;26.80;99.90;;;;;;5079421;28;20024;-67
2022/07/16 02:05:04;;;;;;;27.55;14.27;;;26.90;99.90;;;;;;5080835;28;20031;-67
2022/07/16 02:07:30;;;;;;;28.10;12.25;;;27.00;99.90;;;;;;5084176;28;20062;-65
2022/07/16 02:09:57;;;;;;;17.60;12.38;;;27.00;99.90;;;;;;5092751;28;20024;-66
2022/07/16 02:12:23;;;;;;;23.90;12.75;;;27.10;99.90;;;;;;5086462;28;20100;-65
2022/07/16 02:14:50;;;;;;;19.70;12.82;;;27.20;99.90;;;;;;5072706;28;20412;-65
2022/07/16 02:17:17;;;;;;;21.08;13.50;;;27.30;99.90;;;;;;5075634;28;20016;-65
2022/07/16 02:19:43;;;;;;;18.52;12.90;;;27.30;99.90;;;;;;5089038;28;20020;-64
2022/07/16 02:22:10;;;;;;;17.70;12.35;;;27.30;99.90;;;;;;5072682;28;20078;-64
2022/07/16 02:24:37;;;;;;;23.08;13.02;;;27.30;99.90;;;;;;5073711;28;20036;-64
2022/07/16 02:27:04;;;;;;;21.08;12.57;;;27.30;99.90;;;;;;5083474;28;20020;-65
2022/07/16 02:29:30;;;;;;;29.92;13.98;;;27.30;99.90;;;;;;5084080;28;20039;-65
2022/07/16 02:31:57;;;;;;;17.63;12.30;;;27.40;99.90;;;;;;5086140;28;20035;-64
2022/07/16 02:34:23;;;;;;;24.23;13.82;;;27.40;99.90;;;;;;5087808;28;20169;-65
2022/07/16 02:36:50;;;;;;;16.70;12.52;;;27.50;99.90;;;;;;5073190;28;20052;-65
2022/07/16 02:39:16;;;;;;;23.25;12.02;;;27.50;99.90;;;;;;5081354;28;20028;-64
2022/07/16 02:41:43;;;;;;;19.05;11.27;;;27.50;99.90;;;;;;5088101;28;20109;-66
2022/07/16 02:44:09;;;;;;;10.98;9.80;;;27.60;99.90;;;;;;5080491;28;20029;-65
2022/07/16 02:46:36;;;;;;;15.55;8.05;;;27.60;99.90;;;;;;5093161;28;20412;-66
2022/07/16 02:49:02;;;;;;;12.68;7.35;;;27.70;99.90;;;;;;5094466;28;20023;-66
2022/07/16 02:51:29;;;;;;;14.55;8.32;;;27.70;99.90;;;;;;5085922;28;20099;-66
2022/07/16 02:53:56;;;;;;;14.50;9.05;;;27.80;99.90;;;;;;5080194;28;20027;-66
2022/07/16 02:56:22;;;;;;;11.88;8.60;;;27.90;99.90;;;;;;5081479;28;20025;-64
2022/07/16 02:58:48;;;;;;;12.18;9.00;;;27.80;99.90;;;;;;5082307;28;20013;-66
2022/07/16 03:01:15;;;;;;;16.83;8.98;;;27.90;99.90;;;;;;5081713;28;20028;-66
2022/07/16 03:03:41;;;;;;;13.23;8.68;;;27.90;99.90;;;;;;5082923;28;20434;-65
2022/07/16 03:06:08;;;;;;;14.57;9.80;;;27.90;99.90;;;;;;5080354;28;20020;-66
2022/07/16 03:08:35;;;;;;;14.25;10.23;;;27.90;99.90;;;;;;5078035;28;20024;-65
2022/07/16 03:11:01;;;;;;;21.95;13.15;;;28.00;99.90;;;;;;5077871;28;20021;-65
2022/07/16 03:13:28;;;;;;;12.85;11.07;;;28.00;99.90;;;;;;5077827;28;20020;-68
2022/07/16 03:15:54;;;;;;;15.68;9.93;;;28.00;99.90;;;;;;5077669;28;20472;-70
2022/07/16 03:18:21;;;;;;;20.05;10.57;;;28.00;99.90;;;;;;5078013;28;20472;-69
2022/07/16 03:20:48;;;;;;;19.73;9.80;;;28.10;99.90;;;;;;5087488;28;20126;-67
2022/07/16 03:23:15;;;;;;;15.85;10.00;;;28.10;99.90;;;;;;5083097;28;20039;-67
2022/07/16 03:25:42;;;;;;;13.85;9.95;;;28.10;99.90;;;;;;5078366;28;20400;-66
2022/07/16 03:28:09;;;;;;;19.63;11.13;;;28.20;99.90;;;;;;5087831;28;20028;-67
2022/07/16 03:30:36;;;;;;;16.65;10.00;;;28.20;99.90;;;;;;5087688;28;20052;-68
2022/07/16 03:33:06;;;;;;;16.33;10.60;;;28.30;99.90;;;;;;5087333;28;20102;-66
2022/07/16 03:35:37;;;;;;;16.65;12.15;;;28.30;99.90;;;;;;5088320;28;20024;-66
2022/07/16 03:43:18;;;;;;;18.40;11.68;;;28.40;99.90;;;;;;5079209;28;20024;-66
2022/07/16 03:45:48;;;;;;;15.98;10.50;;;28.40;99.90;;;;;;5078871;28;20025;-66
2022/07/16 03:48:15;;;;;;;13.98;10.40;;;28.50;99.90;;;;;;5081548;28;20059;-66
2022/07/16 03:50:41;;;;;;;17.58;10.57;;;28.60;99.90;;;;;;5077513;28;20059;-66
2022/07/16 03:53:08;;;;;;;17.35;11.13;;;28.60;99.90;;;;;;5076449;28;20024;-65
2022/07/16 03:55:34;;;;;;;15.35;11.57;;;28.60;99.90;;;;;;5077669;28;20013;-65
2022/07/16 03:58:01;;;;;;;19.20;12.27;;;28.70;99.90;;;;;;5080505;28;20354;-65
2022/07/16 04:00:27;;;;;;;17.15;10.77;;;28.70;99.90;;;;;;5097992;22;20053;-65
2022/07/16 04:02:54;;;;;;;14.43;10.95;;;28.80;99.90;;;;;;5073814;28;20100;-65
2022/07/16 04:05:20;;;;;;;15.20;10.55;;;28.80;99.90;;;;;;5073892;28;20445;-66
2022/07/16 04:07:47;;;;;;;14.30;9.90;;;28.80;99.90;;;;;;5069915;28;20500;-67
2022/07/16 04:10:14;;;;;;;13.68;10.85;;;28.80;99.90;;;;;;5073247;28;20028;-66
2022/07/16 04:12:40;;;;;;;10.25;8.02;;;28.90;99.90;;;;;;5073677;28;20402;-67
2022/07/16 04:15:07;;;;;;;16.10;10.68;;;28.90;99.90;;;;;;5073481;28;20098;-67
2022/07/16 04:17:33;;;;;;;18.67;10.68;;;28.90;99.90;;;;;;5070403;28;20017;-68
2022/07/16 04:20:00;;;;;;;14.68;9.48;;;29.00;99.90;;;;;;5073549;28;20017;-67
2022/07/16 04:22:27;;;;;;;19.98;10.18;;;29.00;99.90;;;;;;5071706;28;20480;-67
2022/07/16 04:24:53;;;;;;;11.95;9.75;;;29.00;99.90;;;;;;5073654;28;20025;-67
2022/07/16 04:27:20;;;;;;;12.82;8.80;;;29.00;99.90;;;;;;5073571;28;20017;-66
2022/07/16 04:29:46;;;;;;;18.00;9.50;;;29.00;99.90;;;;;;5073569;28;20094;-67
2022/07/16 04:32:13;;;;;;;40.13;35.80;;;28.90;99.90;;;;;;5073744;28;20024;-66
2022/07/16 04:34:39;;;;;;;16.58;10.82;;;28.90;99.90;;;;;;5073854;28;20024;-66
2022/07/16 04:37:06;;;;;;;13.82;8.75;;;28.90;99.90;;;;;;5074970;28;20032;-66
2022/07/16 04:39:32;;;;;;;12.05;7.38;;;28.90;99.90;;;;;;5073634;28;20016;-66
2022/07/16 04:41:59;;;;;;;8.60;6.97;;;29.00;99.90;;;;;;5072916;28;20044;-66
2022/07/16 04:44:25;;;;;;;9.32;7.28;;;29.00;99.90;;;;;;5072735;28;20021;-66
2022/07/16 04:46:52;;;;;;;17.83;8.02;;;29.00;99.90;;;;;;5072728;28;20021;-67
2022/07/16 04:49:18;;;;;;;15.65;10.48;;;29.00;99.90;;;;;;5073043;28;20025;-65
2022/07/16 04:51:45;;;;;;;16.20;10.43;;;29.00;99.90;;;;;;5072957;28;20047;-66
2022/07/16 04:54:11;;;;;;;17.63;9.98;;;29.00;99.90;;;;;;5069581;28;20020;-67
2022/07/16 04:56:38;;;;;;;15.65;8.68;;;29.10;99.90;;;;;;5095955;28;20383;-66
2022/07/16 04:59:04;;;;;;;17.45;9.38;;;29.20;99.90;;;;;;5072003;28;20016;-66
2022/07/16 05:01:31;;;;;;;20.25;9.23;;;29.20;99.90;;;;;;5070987;28;20538;-66
2022/07/16 05:03:58;;;;;;;9.25;8.15;;;29.20;99.90;;;;;;5071701;28;20091;-65
2022/07/16 05:06:24;;;;;;;13.70;9.02;;;29.30;99.90;;;;;;5071511;28;20104;-65
2022/07/16 05:08:51;;;;;;;14.07;8.93;;;29.30;99.90;;;;;;5071267;28;20028;-67
2022/07/16 05:11:18;;;;;;;12.27;8.80;;;29.40;99.90;;;;;;5071634;28;20052;-67
2022/07/16 05:13:44;;;;;;;14.88;10.52;;;29.50;99.90;;;;;;5071670;28;20012;-66
2022/07/16 05:16:11;;;;;;;20.25;9.68;;;29.50;99.90;;;;;;5071293;28;20032;-66
2022/07/16 05:18:37;;;;;;;14.85;9.63;;;29.50;99.90;;;;;;5072557;28;20051;-67
2022/07/16 05:21:04;;;;;;;15.13;9.85;;;29.60;99.90;;;;;;5072240;28;20020;-67
2022/07/16 05:23:31;;;;;;;13.77;8.98;;;29.60;99.90;;;;;;5072192;28;20024;-66
2022/07/16 05:25:57;;;;;;;10.85;8.55;;;29.60;99.90;;;;;;5071853;28;20024;-66
2022/07/16 05:28:24;;;;;;;18.08;9.38;;;29.70;99.90;;;;;;5072324;28;20485;-66
2022/07/16 05:30:50;;;;;;;12.77;8.90;;;29.70;99.90;;;;;;5072367;28;20020;-65
2022/07/16 05:33:17;;;;;;;14.02;9.45;;;29.70;99.90;;;;;;5072158;28;20024;-67
2022/07/16 05:35:43;;;;;;;15.25;9.25;;;29.80;99.90;;;;;;5073207;28;20901;-67
2022/07/16 05:38:10;;;;;;;11.63;8.32;;;29.90;99.90;;;;;;5070651;28;20016;-65
2022/07/16 05:40:37;;;;;;;13.43;8.60;;;30.00;99.90;;;;;;5073963;28;20082;-66
2022/07/16 05:43:04;;;;;;;13.82;7.53;;;30.00;99.90;;;;;;5073025;28;20017;-66
2022/07/16 05:45:31;;;;;;;14.88;7.72;;;30.00;99.90;;;;;;5069713;28;20060;-65
2022/07/16 05:47:57;;;;;;;13.13;7.60;;;30.00;99.90;;;;;;5073482;28;20033;-65
2022/07/16 05:50:24;;;;;;;8.05;6.00;;;30.00;99.90;;;;;;5073615;28;20070;-65
2022/07/16 05:52:51;;;;;;;12.40;7.10;;;30.10;99.90;;;;;;5073350;28;20020;-65
2022/07/16 05:55:18;;;;;;;9.35;6.50;;;30.00;99.90;;;;;;5073402;28;20021;-65
2022/07/16 05:57:44;;;;;;;6.95;5.80;;;30.00;99.90;;;;;;5073161;28;20247;-65
2022/07/16 06:00:12;;;;;;;12.98;6.10;;;30.00;99.90;;;;;;5073182;28;20055;-65
2022/07/16 06:02:40;;;;;;;12.82;6.47;;;30.00;99.90;;;;;;5073156;28;20053;-65
2022/07/16 06:05:08;;;;;;;7.60;5.68;;;30.00;99.90;;;;;;5064705;28;20074;-65
2022/07/16 06:07:35;;;;;;;8.95;6.13;;;30.00;99.90;;;;;;5062199;28;20027;-65
2022/07/16 06:10:01;;;;;;;12.00;6.43;;;29.90;99.90;;;;;;5062559;28;20029;-65
2022/07/16 06:12:28;;;;;;;11.98;6.82;;;29.90;99.90;;;;;;5062172;28;20110;-65
2022/07/16 06:14:54;;;;;;;12.77;6.93;;;29.90;99.90;;;;;;5065755;28;20023;-65
2022/07/16 06:17:21;;;;;;;11.82;5.80;;;29.80;99.90;;;;;;5066811;28;20106;-65
2022/07/16 06:19:47;;;;;;;10.90;6.03;;;29.90;99.90;;;;;;5058660;28;20108;-65
2022/07/16 06:22:14;;;;;;;11.73;6.75;;;29.90;99.90;;;;;;5056669;28;20024;-65
2022/07/16 06:24:41;;;;;;;12.75;5.70;;;30.00;99.90;;;;;;5056655;28;20049;-65
2022/07/16 06:27:07;;;;;;;11.18;7.15;;;30.00;99.90;;;;;;5056543;28;20458;-66
2022/07/16 06:29:34;;;;;;;12.82;6.20;;;30.00;99.90;;;;;;5056415;28;20060;-66
2022/07/16 06:32:00;;;;;;;8.85;6.25;;;30.00;99.90;;;;;;5056078;28;20033;-65
2022/07/16 06:34:27;;;;;;;10.70;6.80;;;29.90;99.90;;;;;;5056287;28;20423;-66
2022/07/16 06:36:53;;;;;;;11.75;6.63;;;30.00;99.90;;;;;;5056284;28;20441;-65
2022/07/16 06:39:20;;;;;;;8.30;5.35;;;30.10;99.90;;;;;;5056239;28;20045;-66
2022/07/16 06:41:46;;;;;;;7.10;5.82;;;30.10;99.90;;;;;;5056201;28;20104;-66
2022/07/16 06:44:13;;;;;;;10.93;5.85;;;30.10;99.90;;;;;;5058755;28;20028;-66
2022/07/16 06:46:39;;;;;;;9.80;5.72;;;30.10;99.90;;;;;;5064737;28;20049;-66
2022/07/16 06:49:06;;;;;;;9.40;5.47;;;30.20;99.90;;;;;;5056205;28;20575;-66
2022/07/16 06:51:32;;;;;;;10.35;5.97;;;30.20;99.90;;;;;;5056027;28;20107;-66
2022/07/16 06:53:59;;;;;;;9.68;5.22;;;30.20;99.90;;;;;;5055919;28;20032;-67
2022/07/16 06:56:26;;;;;;;11.63;5.60;;;30.20;99.90;;;;;;5056032;28;20020;-66
2022/07/16 06:58:52;;;;;;;7.45;5.63;;;30.10;99.90;;;;;;5055916;28;20013;-66
2022/07/16 07:01:19;;;;;;;13.07;6.10;;;30.10;99.90;;;;;;5060686;28;20044;-66
2022/07/16 07:03:45;;;;;;;7.60;5.43;;;30.10;99.90;;;;;;5074676;28;20016;-65
2022/07/16 07:06:12;;;;;;;12.48;6.88;;;30.10;99.90;;;;;;5074735;28;20017;-66
2022/07/16 07:08:38;;;;;;;8.90;5.65;;;30.10;99.90;;;;;;5074565;28;20044;-65
2022/07/16 07:11:05;;;;;;;10.25;6.13;;;30.10;99.90;;;;;;5074497;28;20111;-68
2022/07/16 07:13:32;;;;;;;15.13;7.10;;;30.10;99.90;;;;;;5074384;28;20017;-67
2022/07/16 07:15:59;;;;;;;17.30;7.13;;;30.10;99.90;;;;;;5074472;28;20021;-68
2022/07/16 07:18:26;;;;;;;9.90;6.10;;;30.10;99.90;;;;;;5075099;28;20028;-68
2022/07/16 07:20:52;;;;;;;10.00;6.45;;;30.10;99.90;;;;;;5075560;28;20388;-68
2022/07/16 07:23:19;;;;;;;10.20;6.63;;;30.10;99.90;;;;;;5074179;28;20021;-68
2022/07/16 07:25:46;;;;;;;10.45;6.10;;;30.10;99.90;;;;;;5074063;28;20028;-68
2022/07/16 07:28:12;;;;;;;10.95;6.38;;;30.10;99.90;;;;;;5073831;28;20029;-68
2022/07/16 07:30:40;;;;;;;14.48;6.82;;;30.20;99.90;;;;;;5075126;28;20056;-67
2022/07/16 07:33:07;;;;;;;18.95;6.60;;;30.20;99.90;;;;;;5072659;28;20043;-68
2022/07/16 07:35:35;;;;;;;9.73;6.80;;;30.20;99.90;;;;;;5075486;28;20399;-68
2022/07/16 07:38:01;;;;;;;15.13;6.82;;;30.20;99.90;;;;;;5075103;28;20082;-70
2022/07/16 07:40:29;;;;;;;13.05;8.27;;;30.10;99.90;;;;;;5066514;28;20535;-68
2022/07/16 07:42:55;;;;;;;13.52;7.03;;;30.20;99.90;;;;;;5064655;28;20024;-68
2022/07/16 07:45:22;;;;;;;17.48;8.25;;;30.10;99.90;;;;;;5065984;28;20099;-68
2022/07/16 07:47:48;;;;;;;13.10;6.68;;;30.10;99.90;;;;;;5074692;28;20020;-67
2022/07/16 07:50:15;;;;;;;16.60;7.82;;;30.10;99.90;;;;;;5074757;28;20033;-67
2022/07/16 07:52:41;;;;;;;11.02;8.10;;;30.10;99.90;;;;;;5074714;28;20029;-68
2022/07/16 07:55:08;;;;;;;14.40;7.45;;;30.00;99.90;;;;;;5074627;28;20017;-68
2022/07/16 07:57:35;;;;;;;10.23;6.40;;;30.10;99.90;;;;;;5074379;28;20075;-67
2022/07/16 08:00:02;;;;;;;11.93;6.43;;;30.00;99.90;;;;;;5073706;28;20021;-69
2022/07/16 08:02:28;;;;;;;14.93;7.13;;;30.00;99.90;;;;;;5074107;28;20094;-69
2022/07/16 08:04:55;;;;;;;11.82;6.50;;;30.00;99.90;;;;;;5074525;28;20542;-69
2022/07/16 08:07:21;;;;;;;14.35;7.50;;;30.00;99.90;;;;;;5074426;28;20040;-68
2022/07/16 08:09:48;;;;;;;9.10;5.90;;;30.00;99.90;;;;;;5073054;28;20012;-68
2022/07/16 08:12:14;;;;;;;11.65;6.05;;;29.90;99.90;;;;;;5074423;28;20028;-68
2022/07/16 08:14:41;;;;;;;15.40;7.35;;;29.90;99.90;;;;;;5074362;28;20024;-67
2022/07/16 08:17:08;;;;;;;14.45;8.45;;;29.90;99.90;;;;;;5074386;28;20019;-69
2022/07/16 08:19:34;;;;;;;11.68;6.45;;;29.90;99.90;;;;;;5074303;28;20491;-69
2022/07/16 08:22:02;;;;;;;10.75;6.18;;;29.90;99.90;;;;;;5072459;28;20032;-67
2022/07/16 08:26:59;;;;;;;13.48;6.68;;;29.90;99.90;;;;;;5074533;28;20491;-67
2022/07/16 08:29:25;;;;;;;15.57;9.50;;;29.90;99.90;;;;;;5071600;28;20498;-64
2022/07/16 08:31:52;;;;;;;17.38;8.05;;;30.00;99.90;;;;;;5073955;28;20024;-67
2022/07/16 08:34:22;;;;;;;11.00;6.80;;;30.10;99.90;;;;;;5073947;28;20012;-66
2022/07/16 08:36:50;;;;;;;16.75;7.43;;;30.20;99.90;;;;;;5071063;28;20028;-66
2022/07/16 08:39:20;;;;;;;11.75;6.85;;;30.20;99.90;;;;;;5073646;28;20381;-67
2022/07/16 08:41:47;;;;;;;17.20;7.75;;;30.20;99.90;;;;;;5063104;28;20013;-66
2022/07/16 08:44:15;;;;;;;14.90;7.50;;;30.10;99.90;;;;;;5068051;28;20024;-65
2022/07/16 08:46:42;;;;;;;24.08;8.98;;;30.20;99.90;;;;;;5074146;28;20096;-66
2022/07/16 08:49:09;;;;;;;16.85;8.93;;;30.20;99.90;;;;;;5074206;28;20024;-66
2022/07/16 08:51:38;;;;;;;13.35;7.55;;;30.20;99.90;;;;;;5074203;28;20357;-67
2022/07/16 08:54:07;;;;;;;15.38;7.75;;;30.30;99.90;;;;;;5070581;28;20012;-67
2022/07/16 08:56:35;;;;;;;17.73;9.02;;;30.20;99.90;;;;;;5070564;28;20100;-67
2022/07/16 08:59:02;;;;;;;17.10;9.38;;;30.20;99.90;;;;;;5072814;28;20029;-66
2022/07/16 09:01:31;;;;;;;19.05;9.32;;;30.20;99.90;;;;;;5072662;28;20139;-67
2022/07/16 09:03:59;;;;;;;13.80;9.30;;;30.20;99.90;;;;;;5073248;28;20024;-67
2022/07/16 09:06:26;;;;;;;21.08;11.80;;;30.20;99.90;;;;;;5074038;28;20024;-67
2022/07/16 09:08:53;;;;;;;23.80;14.27;;;30.20;99.90;;;;;;5073252;28;20541;-65
2022/07/16 09:11:24;;;;;;;24.00;11.10;;;30.20;99.90;;;;;;5073700;28;20384;-65
2022/07/16 09:13:55;;;;;;;13.88;8.68;;;30.10;99.90;;;;;;5073623;28;20423;-66
2022/07/16 09:16:27;;;;;;;23.27;9.13;;;30.10;99.90;;;;;;5073610;28;20023;-67
2022/07/16 09:18:56;;;;;;;;;;;30.10;99.90;;;;;;5073956;28;20623;-65
2022/07/16 09:21:22;;;;;;;26.50;11.18;;;30.00;99.90;;;;;;5073462;28;19904;-67
2022/07/16 09:23:49;;;;;;;20.88;11.60;;;30.10;99.90;;;;;;5073397;28;20024;-67
2022/07/16 09:26:18;;;;;;;19.25;12.05;;;30.00;99.90;;;;;;5073534;28;20052;-67
2022/07/16 09:28:47;;;;;;;15.90;10.35;;;30.00;99.90;;;;;;5073219;28;20384;-67
2022/07/16 09:31:33;;;;;;;14.85;8.85;;;30.00;99.90;;;;;;5073256;28;20386;-67
2022/07/16 09:34:04;;;;;;;13.63;8.90;;;30.00;99.90;;;;;;5066212;28;20039;-67
2022/07/16 09:36:31;;;;;;;16.47;9.00;;;30.00;99.90;;;;;;5066067;28;20058;-66
2022/07/16 09:38:58;;;;;;;14.48;9.35;;;30.10;99.90;;;;;;5061784;28;20025;-65
2022/07/16 09:41:25;;;;;;;15.82;8.85;;;30.00;99.90;;;;;;5053176;28;20474;-65
2022/07/16 09:43:52;;;;;;;15.68;9.05;;;30.00;99.90;;;;;;5053068;28;20060;-65
2022/07/16 09:46:23;;;;;;;14.48;8.82;;;29.90;99.90;;;;;;5061038;28;20044;-64
2022/07/16 09:48:51;;;;;;;14.20;9.90;;;29.80;99.90;;;;;;5069505;28;20028;-63
2022/07/16 09:51:21;;;;;;;17.60;9.10;;;29.90;99.90;;;;;;5070096;28;20024;-63
2022/07/16 09:53:50;;;;;;;80.50;57.25;;;29.90;99.90;;;;;;5070089;28;20055;-65
2022/07/16 09:56:21;;;;;;;23.50;15.52;;;30.00;99.90;;;;;;5074216;28;20024;-64
2022/07/16 09:58:53;;;;;;;18.58;11.18;;;29.90;99.90;;;;;;5067283;28;20020;-63
2022/07/16 10:01:20;;;;;;;;;;;29.90;99.90;;;;;;5068533;28;20052;-66
2022/07/16 10:03:48;;;;;;;27.52;19.20;;;29.90;99.90;;;;;;5076089;28;20045;-64
2022/07/16 10:06:15;;;;;;;34.67;23.40;;;29.80;99.90;;;;;;5077050;28;20024;-64
2022/07/16 10:08:43;;;;;;;37.00;21.65;;;29.80;99.90;;;;;;5076728;28;20098;-64
2022/07/16 10:11:11;;;;;;;52.90;37.40;;;29.70;99.90;;;;;;5073588;28;20029;-63
2022/07/16 10:13:42;;;;;;;41.70;26.50;;;29.70;99.90;;;;;;5074105;28;20048;-63
2022/07/16 10:16:09;;;;;;;39.60;27.05;;;29.60;99.90;;;;;;5068833;28;20057;-64
2022/07/16 10:18:37;;;;;;;75.07;51.03;;;29.60;99.90;;;;;;5075330;28;20021;-64
2022/07/16 10:21:11;;;;;;;28.60;17.20;;;29.60;99.90;;;;;;5071920;28;20090;-66
2022/07/16 10:23:39;;;;;;;33.40;19.88;;;29.60;99.90;;;;;;5068507;28;20033;-65
2022/07/16 10:26:12;;;;;;;18.23;13.35;;;29.60;99.90;;;;;;5072058;28;20025;-65
2022/07/16 10:28:43;;;;;;;27.15;13.23;;;29.50;99.90;;;;;;5076213;28;20512;-65
2022/07/16 10:31:15;;;;;;;17.83;12.30;;;29.50;99.90;;;;;;5068554;28;20035;-66
2022/07/16 10:33:41;;;;;;;24.80;13.07;;;29.50;99.90;;;;;;5076151;28;20032;-65
2022/07/16 10:36:08;;;;;;;26.25;15.65;;;29.50;99.90;;;;;;5076210;28;20104;-67
2022/07/16 10:38:35;;;;;;;32.90;20.70;;;29.50;99.90;;;;;;5076276;28;20103;-66
2022/07/16 10:41:06;;;;;;;35.78;22.00;;;29.50;99.90;;;;;;5076537;28;20028;-68
2022/07/16 10:43:33;;;;;;;29.27;19.40;;;29.40;99.90;;;;;;5076424;28;20021;-67
2022/07/16 10:46:11;;;;;;;39.70;26.92;;;29.40;99.90;;;;;;5076076;28;20500;-68
2022/07/16 10:48:37;;;;;;;56.88;33.88;;;29.40;99.90;;;;;;5076131;28;20073;-68
2022/07/16 10:51:09;;;;;;;57.67;34.55;;;29.40;99.90;;;;;;5076129;28;20071;-67
2022/07/16 10:53:57;;;;;;;63.80;36.63;;;29.50;99.90;;;;;;5073605;28;20029;-66
2022/07/16 10:56:29;;;;;;;83.43;44.08;;;29.50;99.90;;;;;;5035839;28;20045;-67
2022/07/16 10:58:56;;;;;;;59.17;35.80;;;29.40;99.90;;;;;;5073000;28;20031;-68
2022/07/16 11:01:23;;;;;;;53.58;28.63;;;29.40;99.90;;;;;;5076037;28;20052;-67
2022/07/16 11:03:51;;;;;;;36.83;21.08;;;29.30;99.90;;;;;;5076507;28;20066;-73
2022/07/16 11:06:21;;;;;;;37.75;22.27;;;29.30;99.90;;;;;;5076315;28;20099;-70
2022/07/16 11:08:54;;;;;;;37.30;22.90;;;29.30;99.90;;;;;;5076012;28;20149;-69
2022/07/16 11:11:21;;;;;;;37.13;24.65;;;29.30;99.90;;;;;;5062031;28;20029;-71
2022/07/16 11:13:48;;;;;;;45.05;26.33;;;29.30;99.90;;;;;;5075599;28;20104;-71
2022/07/16 11:16:15;;;;;;;42.67;24.63;;;29.20;99.90;;;;;;5075771;28;20107;-68
2022/07/16 11:18:41;;;;;;;34.05;21.52;;;29.20;99.90;;;;;;5075654;28;20021;-69
2022/07/16 11:21:08;;;;;;;36.58;23.75;;;29.20;99.90;;;;;;5074941;28;20029;-67
2022/07/16 11:23:40;;;;;;;35.38;21.02;;;29.20;99.90;;;;;;5072567;28;20036;-69
2022/07/16 11:26:11;;;;;;;112.75;88.60;;;29.10;99.90;;;;;;5070771;28;20434;-67
2022/07/16 11:28:52;;;;;;;63.30;38.72;;;29.10;99.90;;;;;;5064451;28;20352;-66
2022/07/16 11:31:24;;;;;;;42.83;26.33;;;29.10;99.90;;;;;;5074490;28;20027;-67
2022/07/16 11:33:59;;;;;;;44.55;26.33;;;29.10;99.90;;;;;;5074257;28;20029;-68
2022/07/16 11:36:28;;;;;;;38.35;21.38;;;29.10;99.90;;;;;;5072647;28;20094;-67
2022/07/16 11:39:00;;;;;;;36.38;20.88;;;29.10;99.90;;;;;;5073697;28;20021;-67
2022/07/16 11:41:28;;;;;;;33.88;19.15;;;29.10;99.90;;;;;;5074881;28;20024;-69
2022/07/16 11:43:55;;;;;;;33.22;19.80;;;29.20;99.90;;;;;;5068352;28;20511;-67
2022/07/16 11:46:25;;;;;;;32.97;17.75;;;29.10;99.90;;;;;;5073319;28;20536;-66
2022/07/16 11:48:52;;;;;;;21.45;15.75;;;29.10;99.90;;;;;;5075322;28;20034;-67
2022/07/16 11:51:18;;;;;;;24.70;13.75;;;29.10;99.90;;;;;;5075316;28;20358;-66
2022/07/16 11:53:51;;;;;;;32.35;15.85;;;29.10;99.90;;;;;;5074561;28;20027;-65
2022/07/16 11:56:32;;;;;;;27.27;18.15;;;29.10;99.90;;;;;;5074836;28;20020;-65
2022/07/16 11:58:59;;;;;;;37.42;21.95;;;29.10;99.90;;;;;;5074530;28;20035;-66
2022/07/16 12:01:32;;;;;;;32.38;20.65;;;29.10;99.90;;;;;;5074021;28;20056;-70
2022/07/16 12:03:58;;;;;;;37.88;21.60;;;29.10;99.90;;;;;;5074116;28;20099;-69
2022/07/16 12:06:25;;;;;;;35.78;20.23;;;29.00;99.90;;;;;;5066258;28;20039;-67
2022/07/16 12:08:57;;;;;;;43.60;23.25;;;29.00;99.90;;;;;;5054811;28;20086;-70
2022/07/16 12:11:29;;;;;;;55.13;28.92;;;29.00;99.90;;;;;;5053925;28;20025;-69
2022/07/16 12:13:56;;;;;;;32.55;22.95;;;29.00;99.90;;;;;;5072955;28;20016;-67
2022/07/16 12:16:23;;;;;;;37.30;21.05;;;29.00;99.90;;;;;;5069597;28;20032;-70
2022/07/16 12:18:55;;;;;;;43.10;21.23;;;28.90;99.90;;;;;;5054977;28;20389;-68
2022/07/16 12:21:25;;;;;;;38.53;21.13;;;28.90;99.90;;;;;;5054857;28;20025;-69
2022/07/16 12:23:52;;;;;;;39.97;25.98;;;28.90;99.90;;;;;;5054683;28;20021;-69
2022/07/16 12:26:29;;;;;;;66.05;46.13;;;28.90;99.90;;;;;;5069280;28;20056;-71
2022/07/16 12:28:56;;;;;;;90.70;60.25;;;28.90;99.90;;;;;;5054997;28;20485;-70
2022/07/16 12:31:27;;;;;;;55.72;33.47;;;28.90;99.90;;;;;;5054463;28;20125;-69
2022/07/16 12:33:54;;;;;;;92.60;50.50;;;28.90;99.90;;;;;;5054792;28;20025;-69
2022/07/16 12:36:28;;;;;;;95.40;63.50;;;28.90;99.90;;;;;;5054894;28;20031;-66
2022/07/16 12:39:05;;;;;;;82.28;54.97;;;28.80;99.90;;;;;;5058757;28;20096;-66
2022/07/16 12:41:41;;;;;;;122.50;82.97;;;28.90;99.90;;;;;;5059747;28;20033;-67
2022/07/16 12:44:11;;;;;;;74.57;45.05;;;28.90;99.90;;;;;;5054157;28;20031;-66
2022/07/16 12:46:40;;;;;;;60.30;34.72;;;28.80;99.90;;;;;;5053767;28;20082;-67